Terminal Aerodrome Forecast
Issued by NWS

Home | Current Version | Previous Version | Text Only | Print | Product List | Glossary On
Versions: 1 2 3 4 5 6 7 8 9 10 11 12 13 14 15 16 17 18 19 20 21 22 23 24 25 26 27 28 29 30
000
FTUS42 KMFL 232108 AAD
TAFOPF
TAF AMD
KOPF 232108Z 2321/2418 20005KT P6SM -RA VCSH SCT025 BKN050
     FM232300 11005KT P6SM VCSH BKN035 BKN070 BKN250
     FM240600 VRB03KT P6SM VCSH SCT030 BKN050
     FM241500 14006KT P6SM VCTS SCT030CB BKN050=

USA.gov is the U.S. government's official web portal to all federal, state and local government web resources and services.